Limnos, Greece

9:40 AM EEST on October 23, 2014 (GMT +0300)
Limnos | Change Station
CLOSE
Current Station
Airport
Location: Limnos,
Elevation: 13 ft
Nearby Weather Stations
Active Advisory: Thunderstorms

Elev 13 ft 39.92 °N, 25.24 °E | Updated 20 minutes ago

Light Rain
Light Rain
68 °F
Feels Like 68 °F
N
20
Wind Variable Wind from South
Gusts 33 mph

Today
High -- | Low -- °F
--% Chance of Precip.
Yesterday
High -- | Low -- °F
Precip. -- in
7:37 AM 6:28 PM
Waning Crescent, 0% visible
Pressure 29.53 in
Visibility 5.0 miles
Clouds Few 800 ft
Scattered Clouds 2000 ft
Mostly Cloudy 8000 ft
Dew Point 63 °F
Humidity 83%
Rainfall 0.00 in
Snow Depth Not available.
UV 1 out of 12
Pollen Not available.
Air Quality Not available.
Flu Activity Not available.
METAR LGLM 230620Z 17017G29KT 8000 -RA FEW008 SCT020TCU BKN080 20/17 Q1000

More Conditions Fewer Conditions

Pressure 29.53 in
Visibility 5.0 miles
Clouds Few 800 ft
Scattered Clouds 2000 ft
Mostly Cloudy 8000 ft
Dew Point 63 °F
Humidity 83%
Rainfall 0.00 in
Snow Depth Not available.
UV 1 out of 12
Pollen Not available.
Air Quality Not available.
Flu Activity Not available.
METAR LGLM 230620Z 17017G29KT 8000 -RA FEW008 SCT020TCU BKN080 20/17 Q1000

More Conditions Fewer Conditions

10-Day Weather Forecast

Almanac

Astronomy

Oct. 23, 2014 Rise Set
Actual Time 7:37 AM EEST 6:28 PM EEST
Civil Twilight 7:10 AM EEST 6:56 PM EEST
Nautical Twilight 6:38 AM EEST 7:27 PM EEST
Astronomical Twilight 6:07 AM EEST 7:58 PM EEST
Moon 6:58 AM EEST 6:18 PM EEST
Length of Visible Light 11h 46m
Length of Day
10h 50m
Tomorrow will be 2m 27s shorter.
Waning Crescent, 0% of the Moon is Illuminated
Today
Waning Crescent
Oct 23
New
Oct 30
First Quarter
Nov 6
Full
Nov 14
Last Quarter

Yesterday's Extremes

Country Highs Country Lows

Community

WunderPhotos

Upload Photos

1,764,194 photos uploaded!

Nearby

Snow Depth

Not available.

Earthquake Activity

City Distance Mag. Time & Date
No recent earthquake activity has been reported nearby.
Minimum magnitude displayed is 2.5.

Coastal Water Temperatures

Place Temperature
No Stations Reporting

Nearby Weather Stations